Time;durP1;ratioP1;P1;durP2;ratioP2;P2;SDS_P1;SDS_P2;PMS_P1;PMS_P2;Temp;Humidity;BMP_temperature;BMP_pressure;BME280_temperature;BME280_humidity;BME280_pressure;Samples;Min_cycle;Max_cycle;Signal;HPM_P1;HPM_P2
2022/05/16 06:00:29;;;;;;;6.73;4.07;;;18.40;99.90;;;;;;6047890;23;20017;31
2022/05/16 06:02:55;;;;;;;10.10;7.07;;;18.40;99.90;;;;;;4915125;29;20044;-80
2022/05/16 06:05:22;;;;;;;5.43;2.80;;;18.40;99.90;;;;;;4916152;29;20571;-77
2022/05/16 06:07:47;;;;;;;5.63;3.92;;;18.60;99.90;;;;;;4917541;29;20060;-78
2022/05/16 06:10:13;;;;;;;8.95;3.92;;;18.70;99.90;;;;;;4918007;29;20333;-80
2022/05/16 06:12:39;;;;;;;7.93;3.53;;;18.80;99.90;;;;;;4918298;29;20032;-79
2022/05/16 06:15:06;;;;;;;6.35;3.30;;;18.90;99.90;;;;;;4917439;29;20063;-78
2022/05/16 06:17:32;;;;;;;5.18;2.80;;;19.00;99.90;;;;;;4915547;29;20373;-78
2022/05/16 06:19:57;;;;;;;6.18;2.83;;;19.10;99.90;;;;;;4915981;29;20075;-78
2022/05/16 06:22:23;;;;;;;11.07;3.20;;;19.40;99.90;;;;;;4917536;29;20024;-79
2022/05/16 06:27:33;;;;;;;6.50;2.55;;;19.90;99.90;;;;;;4917842;29;20114;-78
2022/05/16 06:29:59;;;;;;;3.50;2.22;;;19.90;99.90;;;;;;4917667;29;20484;-79
2022/05/16 06:32:25;;;;;;;5.68;3.30;;;20.00;99.90;;;;;;4932004;29;20036;-80
2022/05/16 06:34:51;;;;;;;3.15;2.55;;;20.10;99.90;;;;;;4931464;29;20035;-80
2022/05/16 06:37:18;;;;;;;5.10;2.70;;;20.20;99.90;;;;;;4917020;29;20024;-78
2022/05/16 06:39:45;;;;;;;4.90;2.85;;;20.00;99.90;;;;;;4917683;29;20035;-79
2022/05/16 06:42:11;;;;;;;6.55;3.10;;;19.90;99.90;;;;;;4932314;29;20025;-79
2022/05/16 06:44:36;;;;;;;5.78;2.60;;;20.00;99.90;;;;;;4917928;29;20039;-79
2022/05/16 06:47:02;;;;;;;4.82;2.85;;;20.50;99.90;;;;;;4916263;29;20020;-78
2022/05/16 06:49:28;;;;;;;6.43;3.03;;;20.80;99.90;;;;;;4916361;29;20036;-79
2022/05/16 06:51:53;;;;;;;7.28;2.70;;;21.30;99.90;;;;;;4917178;29;20085;-80
2022/05/16 06:54:19;;;;;;;5.00;2.58;;;21.40;99.90;;;;;;4916483;29;20040;-79
2022/05/16 06:56:44;;;;;;;4.38;2.30;;;21.60;99.90;;;;;;4917637;29;20288;-80
2022/05/16 06:59:10;;;;;;;11.05;3.53;;;21.70;99.90;;;;;;4917853;29;20112;-80
2022/05/16 07:01:36;;;;;;;5.05;2.60;;;21.70;99.90;;;;;;4928666;29;20047;-80
2022/05/16 07:04:03;;;;;;;5.10;2.58;;;22.40;99.50;;;;;;4919298;29;20038;-79
2022/05/16 07:06:28;;;;;;;6.30;2.58;;;23.00;98.80;;;;;;4919009;29;20031;-79
2022/05/16 07:08:54;;;;;;;7.68;2.33;;;22.80;98.60;;;;;;4918808;29;20166;-80
2022/05/16 07:11:20;;;;;;;7.07;2.83;;;23.40;98.00;;;;;;4918857;29;20118;-80
2022/05/16 07:13:46;;;;;;;4.93;2.50;;;23.60;98.10;;;;;;4918892;29;20062;-78
2022/05/16 07:16:12;;;;;;;3.20;2.45;;;23.80;96.70;;;;;;4935968;29;20098;-79
2022/05/16 07:18:37;;;;;;;5.80;2.95;;;24.30;96.70;;;;;;4936110;29;20026;-80
2022/05/16 07:21:04;;;;;;;5.68;3.15;;;24.80;95.80;;;;;;4935510;29;20506;-78
2022/05/16 07:23:30;;;;;;;6.78;2.80;;;25.00;95.30;;;;;;4935567;29;20036;-79
2022/05/16 07:28:40;;;;;;;6.13;2.20;;;24.80;95.30;;;;;;4936278;29;20624;-80
2022/05/16 07:31:06;;;;;;;5.25;2.75;;;24.60;95.00;;;;;;4936062;29;20031;-79
2022/05/16 07:33:34;;;;;;;5.78;2.30;;;24.20;95.40;;;;;;4937080;29;20019;-77
2022/05/16 07:35:59;;;;;;;5.47;2.67;;;24.00;95.90;;;;;;4936128;29;20028;-78
2022/05/16 07:38:26;;;;;;;5.75;3.08;;;24.10;95.90;;;;;;4935444;29;20445;-79
2022/05/16 07:40:52;;;;;;;9.75;3.20;;;24.20;95.70;;;;;;4918924;29;20546;-79
2022/05/16 07:43:19;;;;;;;8.70;4.90;;;24.00;95.70;;;;;;4935676;29;20028;-80
2022/05/16 07:45:45;;;;;;;8.23;3.03;;;23.80;96.10;;;;;;4935722;29;20042;-79
2022/05/16 07:48:12;;;;;;;6.18;2.80;;;23.80;96.10;;;;;;4936498;29;20751;-80
2022/05/16 07:50:38;;;;;;;4.93;2.70;;;23.60;96.20;;;;;;4918546;29;20059;-79
2022/05/16 07:53:11;;;;;;;3.88;2.70;;;23.40;97.00;;;;;;4935129;29;20035;-80
2022/05/16 07:55:37;;;;;;;7.65;3.17;;;23.60;96.90;;;;;;4935339;29;20506;-79
2022/05/16 07:58:02;;;;;;;4.80;2.40;;;23.60;96.80;;;;;;4917940;29;20114;-78
2022/05/16 08:00:28;;;;;;;5.18;2.58;;;23.90;96.80;;;;;;4917867;29;20131;-79
2022/05/16 08:02:53;;;;;;;3.13;2.33;;;23.80;96.90;;;;;;4935160;29;20059;-79
2022/05/16 08:05:20;;;;;;;3.90;2.28;;;23.80;97.10;;;;;;4934933;29;20039;-78
2022/05/16 08:10:30;;;;;;;3.22;2.45;;;23.80;97.60;;;;;;4935256;29;20063;-78
2022/05/16 08:13:02;;;;;;;5.43;2.58;;;23.70;98.20;;;;;;4917927;29;20404;-80
2022/05/16 08:15:29;;;;;;;4.45;3.45;;;23.40;99.20;;;;;;4918505;29;20047;-80
2022/05/16 08:17:55;;;;;;;4.90;3.25;;;23.20;99.90;;;;;;4939092;29;20024;-79
2022/05/16 08:20:21;;;;;;;6.05;2.80;;;23.10;99.90;;;;;;4938810;29;20443;-79
2022/05/16 08:22:47;;;;;;;3.00;2.55;;;23.10;99.90;;;;;;4921775;29;20055;-77
2022/05/16 08:25:14;;;;;;;5.40;3.50;;;23.10;99.90;;;;;;4939461;29;20408;-80
2022/05/16 08:27:40;;;;;;;4.25;2.50;;;23.10;99.90;;;;;;4938606;29;20107;-79
2022/05/16 08:30:07;;;;;;;6.07;3.15;;;23.20;99.90;;;;;;4938889;29;20502;-79
2022/05/16 08:32:32;;;;;;;6.03;2.92;;;23.60;99.90;;;;;;4940236;29;20028;-80
2022/05/16 08:35:02;;;;;;;5.28;3.25;;;24.10;99.50;;;;;;4938342;29;20028;-78
2022/05/16 08:40:14;;;;;;;5.65;3.08;;;24.10;99.10;;;;;;4938770;29;20559;-80
2022/05/16 08:42:48;;;;;;;5.72;3.00;;;24.00;99.10;;;;;;4938456;29;20054;-80
2022/05/16 08:45:29;;;;;;;7.57;2.95;;;23.50;99.90;;;;;;4938930;29;20032;-79
2022/05/16 08:47:57;;;;;;;;;;;23.60;99.90;;;;;;4939652;29;20154;-80
2022/05/16 08:50:40;;;;;;;4.05;2.72;;;24.00;99.90;;;;;;4921293;29;19911;-81
2022/05/16 08:53:30;;;;;;;3.45;2.67;;;24.30;99.90;;;;;;4939143;29;20028;-78
2022/05/16 08:56:01;;;;;;;7.88;3.13;;;24.80;99.90;;;;;;4938330;29;20019;-79
2022/05/16 08:58:29;;;;;;;7.50;3.58;;;25.00;98.70;;;;;;4937894;29;20028;-79
2022/05/16 09:01:03;;;;;;;4.10;2.80;;;25.20;97.80;;;;;;4911981;29;20571;-79
2022/05/16 09:03:52;;;;;;;6.57;2.90;;;25.30;97.20;;;;;;4899924;29;20033;-80
2022/05/16 09:06:26;;;;;;;3.35;2.78;;;25.80;96.50;;;;;;4900314;29;20034;-81
2022/05/16 09:09:11;;;;;;;4.82;3.60;;;26.00;95.80;;;;;;4900252;29;20490;-81
2022/05/16 09:12:01;;;;;;;7.72;2.88;;;26.10;95.80;;;;;;4900631;29;20039;-79
2022/05/16 09:14:42;;;;;;;3.17;2.77;;;26.00;95.40;;;;;;4900321;29;20036;-79
2022/05/16 09:17:18;;;;;;;5.05;2.80;;;25.90;95.60;;;;;;4900172;29;20025;-80
2022/05/16 09:20:08;;;;;;;4.55;3.08;;;26.00;95.10;;;;;;4900702;29;20028;-80
2022/05/16 09:22:47;;;;;;;4.57;3.20;;;26.20;95.20;;;;;;4900000;29;20045;-79
2022/05/16 09:25:22;;;;;;;4.13;2.45;;;26.60;94.90;;;;;;4899255;29;20029;-79
2022/05/16 09:30:42;;;;;;;5.90;3.35;;;27.50;92.50;;;;;;4900019;29;20063;-80
2022/05/16 09:33:26;;;;;;;4.65;2.83;;;27.30;92.40;;;;;;4899584;29;20033;-80
2022/05/16 09:36:04;;;;;;;5.88;2.40;;;27.00;92.30;;;;;;4898462;29;20020;-79
2022/05/16 09:38:31;;;;;;;4.95;3.28;;;26.90;92.70;;;;;;4898837;29;20084;-80
2022/05/16 09:41:22;;;;;;;6.30;3.10;;;26.90;92.20;;;;;;4899890;29;20405;-80
2022/05/16 09:43:58;;;;;;;3.67;2.55;;;27.20;91.90;;;;;;4872555;29;20093;-79
2022/05/16 09:46:28;;;;;;;6.00;2.60;;;27.00;91.60;;;;;;4899791;29;20028;-80
2022/05/16 09:49:15;;;;;;;4.32;3.22;;;26.70;91.40;;;;;;4899522;29;20389;-80
2022/05/16 09:51:42;;;;;;;4.55;2.55;;;26.50;91.90;;;;;;4899458;29;20028;-79
2022/05/16 09:54:18;;;;;;;4.80;2.72;;;26.30;91.80;;;;;;4899268;29;20067;-79
2022/05/16 09:57:05;;;;;;;4.30;2.78;;;26.20;92.10;;;;;;4899133;29;20365;-80
2022/05/16 09:59:42;;;;;;;5.13;2.78;;;26.10;92.00;;;;;;4900218;29;20333;-79
2022/05/16 10:02:13;;;;;;;4.28;3.40;;;26.00;92.10;;;;;;4930512;29;20032;-79
2022/05/16 10:04:43;;;;;;;4.20;2.72;;;25.90;92.10;;;;;;4921057;29;20563;-80
2022/05/16 10:07:09;;;;;;;5.30;3.13;;;26.10;92.50;;;;;;4920638;29;20024;-80
2022/05/16 10:09:49;;;;;;;5.28;2.80;;;26.00;92.50;;;;;;4921652;29;20428;-82
2022/05/16 10:12:18;;;;;;;8.18;3.17;;;25.80;92.30;;;;;;4921212;29;20451;-79
2022/05/16 10:14:46;;;;;;;6.78;3.00;;;25.80;92.40;;;;;;4938138;29;20429;-79
2022/05/16 10:17:22;;;;;;;6.20;2.60;;;25.90;92.10;;;;;;4920133;29;20026;-79
2022/05/16 10:19:50;;;;;;;4.22;3.63;;;26.00;92.50;;;;;;4920797;29;20026;-81
2022/05/16 10:22:19;;;;;;;6.18;2.85;;;26.30;92.40;;;;;;4937158;29;20024;-81
2022/05/16 10:24:52;;;;;;;5.18;2.90;;;26.70;91.80;;;;;;4904156;29;20024;-80
2022/05/16 10:27:23;;;;;;;3.90;2.72;;;26.60;91.40;;;;;;4937377;29;20032;-81
2022/05/16 10:29:52;;;;;;;6.05;3.15;;;26.80;91.40;;;;;;4937122;29;20515;-79
2022/05/16 10:35:12;;;;;;;4.47;2.90;;;26.40;91.40;;;;;;4938981;29;20058;-80
2022/05/16 10:37:43;;;;;;;3.40;3.10;;;25.90;91.50;;;;;;4922073;29;20031;-80
2022/05/16 10:40:11;;;;;;;5.85;2.42;;;25.70;92.50;;;;;;4940479;29;20055;-80
2022/05/16 10:42:47;;;;;;;6.03;3.40;;;25.40;92.90;;;;;;4937084;29;20060;-81
2022/05/16 10:45:18;;;;;;;4.63;3.15;;;25.30;93.30;;;;;;4936543;29;20027;-80
2022/05/16 10:47:57;;;;;;;5.35;3.25;;;25.00;93.70;;;;;;4936877;29;20043;-80
2022/05/16 10:50:43;;;;;;;6.47;2.38;;;24.80;93.70;;;;;;4924801;29;20104;-80
2022/05/16 10:53:18;;;;;;;5.25;2.67;;;24.60;93.80;;;;;;4943991;29;20039;-79
2022/05/16 10:56:02;;;;;;;3.42;2.50;;;24.50;93.90;;;;;;4937260;29;20020;-79
2022/05/16 10:58:38;;;;;;;9.85;3.22;;;24.70;93.90;;;;;;4920221;29;20555;-79
2022/05/16 11:01:09;;;;;;;4.10;2.78;;;24.80;93.30;;;;;;4919164;29;20071;-79
2022/05/16 11:03:47;;;;;;;4.82;3.10;;;24.90;93.00;;;;;;4937422;29;20026;-80
2022/05/16 11:06:19;;;;;;;4.93;2.38;;;25.20;92.80;;;;;;4920107;29;20023;-82
2022/05/16 11:09:16;;;;;;;3.50;1.90;;;25.20;92.70;;;;;;4936984;29;20027;-79
2022/05/16 11:12:06;;;;;;;6.13;2.25;;;24.90;92.80;;;;;;4920129;29;20395;-80
2022/05/16 11:14:54;;;;;;;4.53;2.30;;;25.00;93.20;;;;;;4936065;29;20408;-79
2022/05/16 11:17:44;;;;;;;3.58;1.83;;;25.00;93.10;;;;;;4937376;29;20024;-81
2022/05/16 11:20:35;;;;;;;4.10;2.20;;;25.00;93.60;;;;;;4937309;29;20102;-80
2022/05/16 11:23:01;;;;;;;5.95;2.20;;;24.90;93.80;;;;;;4936254;29;20424;-79
2022/05/16 11:25:36;;;;;;;3.88;1.67;;;24.40;93.50;;;;;;4936244;29;20087;-79
2022/05/16 11:28:20;;;;;;;2.83;1.88;;;24.10;94.30;;;;;;4919640;29;20055;-79
2022/05/16 11:30:55;;;;;;;3.88;2.10;;;23.90;94.40;;;;;;4936639;29;20303;-80
2022/05/16 11:33:32;;;;;;;4.68;2.20;;;23.60;94.50;;;;;;4936770;29;20020;-80
2022/05/16 11:36:21;;;;;;;3.13;1.45;;;23.40;94.70;;;;;;4937033;29;20023;-81
2022/05/16 11:39:22;;;;;;;4.57;1.90;;;23.40;94.80;;;;;;4920742;29;20391;-80
2022/05/16 11:41:54;;;;;;;7.28;1.70;;;23.20;94.60;;;;;;4919968;29;20460;-81
2022/05/16 11:44:23;;;;;;;10.38;2.45;;;23.20;94.60;;;;;;4936549;29;20035;-78
2022/05/16 11:47:05;;;;;;;2.50;1.13;;;23.20;94.40;;;;;;4921628;29;20035;-80
2022/05/16 11:49:59;;;;;;;1.63;1.48;;;23.20;94.30;;;;;;4920652;29;20032;-81
2022/05/16 11:52:43;;;;;;;5.68;1.35;;;23.10;94.50;;;;;;4940193;29;20472;-80
2022/05/16 12:01:07;;;;;;;3.45;1.27;;;22.90;94.30;;;;;;4940103;29;20082;-79
2022/05/16 12:03:40;;;;;;;6.90;2.85;;;22.90;94.40;;;;;;4922588;29;20028;-80
2022/05/16 12:06:23;;;;;;;1.92;0.98;;;22.80;93.70;;;;;;4922956;29;20078;-80
2022/05/16 12:08:49;;;;;;;4.45;1.13;;;22.90;93.40;;;;;;4939813;29;20055;-80
2022/05/16 12:11:27;;;;;;;3.85;1.15;;;22.70;93.10;;;;;;4939179;29;20062;-80
2022/05/16 12:14:10;;;;;;;3.75;1.05;;;22.40;93.10;;;;;;4939854;29;20028;-80
2022/05/16 12:16:54;;;;;;;3.40;0.93;;;22.10;93.40;;;;;;4922453;29;20083;-80
2022/05/16 12:19:37;;;;;;;3.28;1.67;;;21.90;94.90;;;;;;4922118;29;20055;-79
2022/05/16 12:22:09;;;;;;;2.40;1.00;;;21.40;96.90;;;;;;4922511;29;20067;-79
2022/05/16 12:24:53;;;;;;;1.92;1.00;;;20.70;98.40;;;;;;4939347;29;20436;-80
2022/05/16 12:27:27;;;;;;;4.18;1.00;;;20.40;99.90;;;;;;4939069;29;20396;-80
2022/05/16 12:29:56;;;;;;;2.05;1.00;;;20.10;99.90;;;;;;4939231;29;20076;-80
2022/05/16 12:32:31;;;;;;;5.80;1.40;;;19.90;99.90;;;;;;4922457;29;20383;-79
2022/05/16 12:35:01;;;;;;;1.60;1.20;;;19.80;99.90;;;;;;4921699;29;20587;-79
2022/05/16 12:37:27;;;;;;;2.83;1.15;;;19.70;99.90;;;;;;4921765;29;20023;-79
2022/05/16 12:40:16;;;;;;;5.13;1.50;;;19.50;99.90;;;;;;4921799;29;20046;-80
2022/05/16 12:43:03;;;;;;;3.88;1.15;;;19.50;99.90;;;;;;4938572;29;20031;-79
2022/05/16 12:45:50;;;;;;;6.45;1.88;;;19.50;99.90;;;;;;4926242;29;20032;-80
2022/05/16 12:48:34;;;;;;;2.47;1.27;;;19.40;99.90;;;;;;4940036;29;20032;-80
2022/05/16 12:51:26;;;;;;;9.70;1.80;;;19.30;99.90;;;;;;4938775;29;20504;-80
2022/05/16 12:54:09;;;;;;;4.28;1.40;;;19.10;99.90;;;;;;4938084;29;20035;-79
2022/05/16 12:56:51;;;;;;;3.67;1.27;;;19.10;99.90;;;;;;4939084;29;20019;-80
2022/05/16 12:59:47;;;;;;;3.63;1.30;;;19.00;99.90;;;;;;4939155;29;20036;-81
2022/05/16 13:02:39;;;;;;;3.35;1.55;;;19.00;99.90;;;;;;4921676;29;20075;-79
2022/05/16 13:05:40;;;;;;;6.60;1.92;;;19.00;99.90;;;;;;4937924;29;20465;-79
2022/05/16 13:08:22;;;;;;;6.75;1.80;;;19.10;99.90;;;;;;4938698;29;20034;-80
2022/05/16 13:11:00;;;;;;;3.10;1.40;;;19.40;99.90;;;;;;4922059;29;20078;-78
2022/05/16 13:13:29;;;;;;;2.28;1.30;;;19.60;99.90;;;;;;4938489;29;20035;-79
2022/05/16 13:16:23;;;;;;;3.03;1.20;;;19.90;99.90;;;;;;4939263;29;20028;-80
2022/05/16 13:18:55;;;;;;;5.88;1.75;;;20.70;99.90;;;;;;4938096;29;20062;-80
2022/05/16 13:21:21;;;;;;;3.17;1.52;;;21.00;99.90;;;;;;4921214;29;20114;-79
2022/05/16 13:23:49;;;;;;;2.88;1.10;;;21.10;99.90;;;;;;4920595;29;20095;-78
2022/05/16 13:31:53;;;;;;;3.83;1.05;;;21.50;99.90;;;;;;4939084;29;20047;-80
2022/05/16 13:34:35;;;;;;;5.78;1.83;;;21.30;99.90;;;;;;4937694;29;20541;-80
2022/05/16 13:37:06;;;;;;;2.47;1.67;;;21.40;99.90;;;;;;4920387;29;20027;-78
2022/05/16 13:39:43;;;;;;;4.63;1.20;;;21.50;99.90;;;;;;4920766;29;20032;-78
2022/05/16 13:42:09;;;;;;;2.72;1.30;;;21.70;99.90;;;;;;4921076;29;20039;-79
2022/05/16 13:44:41;;;;;;;3.80;2.00;;;22.10;99.90;;;;;;4921048;29;20032;-78
2022/05/16 13:47:10;;;;;;;2.58;1.30;;;22.40;99.90;;;;;;4937731;29;20083;-78
2022/05/16 13:49:36;;;;;;;4.45;1.52;;;22.00;99.90;;;;;;4937781;29;20028;-79
2022/05/16 13:52:03;;;;;;;4.85;1.42;;;21.80;99.90;;;;;;4937264;29;20035;-79
2022/05/16 13:54:34;;;;;;;4.85;2.92;;;22.20;99.90;;;;;;4920668;29;20108;-80
2022/05/16 13:57:06;;;;;;;4.25;1.27;;;22.40;99.90;;;;;;4921151;29;20020;-80
2022/05/16 13:59:34;;;;;;;2.83;1.30;;;22.70;99.90;;;;;;4940365;29;20023;-79
2022/05/16 14:02:04;;;;;;;4.15;1.40;;;23.20;99.90;;;;;;4943014;29;20093;-80
2022/05/16 14:04:35;;;;;;;7.05;1.77;;;23.90;99.90;;;;;;4941529;29;20023;-80
2022/05/16 14:07:23;;;;;;;3.97;1.40;;;23.40;99.90;;;;;;4937861;29;20465;-80
2022/05/16 14:09:58;;;;;;;3.33;1.75;;;23.60;99.90;;;;;;4937010;29;20103;-80
2022/05/16 14:12:38;;;;;;;7.18;3.78;;;23.10;99.90;;;;;;4937959;29;20042;-81
2022/05/16 14:15:08;;;;;;;2.95;1.50;;;23.10;99.90;;;;;;4919867;29;20050;-80
2022/05/16 14:17:40;;;;;;;3.15;1.73;;;23.10;99.90;;;;;;4937285;29;20395;-79
2022/05/16 14:20:19;;;;;;;7.70;2.22;;;22.80;99.90;;;;;;4937700;29;20499;-80
2022/05/16 14:22:47;;;;;;;5.57;1.95;;;22.80;99.90;;;;;;4920220;29;20118;-79
2022/05/16 14:25:35;;;;;;;8.10;2.05;;;22.90;99.90;;;;;;4937166;29;20034;-79
2022/05/16 14:28:17;;;;;;;5.32;1.85;;;22.90;99.90;;;;;;4922943;29;20039;-79
2022/05/16 14:30:51;;;;;;;5.25;2.20;;;23.20;99.90;;;;;;4936415;29;20193;-79
2022/05/16 14:33:18;;;;;;;2.15;1.20;;;23.60;99.90;;;;;;4919093;29;20031;-79
2022/05/16 14:36:05;;;;;;;3.30;1.55;;;24.00;99.90;;;;;;4919224;29;20083;-80
2022/05/16 14:38:45;;;;;;;3.38;1.58;;;23.50;99.90;;;;;;4920406;29;20059;-80
2022/05/16 14:41:19;;;;;;;6.63;2.58;;;23.60;99.90;;;;;;4936522;29;20412;-80
2022/05/16 14:44:05;;;;;;;3.55;2.15;;;24.00;99.90;;;;;;4936148;29;20405;-79
2022/05/16 14:46:42;;;;;;;3.55;1.95;;;24.10;99.90;;;;;;4936721;29;20492;-79
2022/05/16 14:49:12;;;;;;;3.45;1.60;;;24.10;99.90;;;;;;4937424;29;20031;-81
2022/05/16 14:51:39;;;;;;;3.50;2.08;;;23.70;99.90;;;;;;4920512;29;20102;-80
2022/05/16 14:54:32;;;;;;;3.70;2.53;;;23.40;99.90;;;;;;4938623;29;20024;-81
2022/05/16 14:56:59;;;;;;;4.05;2.13;;;23.20;99.90;;;;;;4937950;29;20420;-80
2022/05/16 14:59:25;;;;;;;5.40;1.90;;;23.20;99.90;;;;;;4919391;29;20020;-79
2022/05/16 15:04:34;;;;;;;1.67;1.58;;;22.90;99.90;;;;;;4937525;29;20097;-80
2022/05/16 15:07:01;;;;;;;3.17;2.17;;;22.80;99.90;;;;;;4938202;29;20028;-80
2022/05/16 15:09:27;;;;;;;5.30;1.83;;;22.80;99.90;;;;;;4920509;29;20078;-80
2022/05/16 15:11:57;;;;;;;4.82;1.85;;;22.80;99.90;;;;;;4918858;29;20077;-80
2022/05/16 15:14:26;;;;;;;3.55;2.17;;;23.00;99.90;;;;;;4918752;29;20036;-80
2022/05/16 15:16:53;;;;;;;4.30;3.28;;;23.20;99.90;;;;;;4935919;29;20032;-80
2022/05/16 15:19:19;;;;;;;5.07;3.03;;;23.40;99.90;;;;;;4936077;29;20019;-80
2022/05/16 15:21:46;;;;;;;2.85;2.10;;;23.60;99.90;;;;;;4918711;29;20024;-81
2022/05/16 15:24:21;;;;;;;2.45;2.05;;;23.40;99.90;;;;;;4919066;29;20024;-80
2022/05/16 15:26:48;;;;;;;3.40;2.67;;;23.50;99.90;;;;;;4919198;29;20432;-81
2022/05/16 15:29:14;;;;;;;8.10;2.03;;;23.80;99.90;;;;;;4919409;29;20032;-79
2022/05/16 15:31:40;;;;;;;4.68;1.80;;;23.60;99.90;;;;;;4918674;29;20043;-80
2022/05/16 15:34:06;;;;;;;5.90;2.03;;;23.40;99.90;;;;;;4918512;29;20028;-80
2022/05/16 15:36:33;;;;;;;5.45;2.13;;;23.70;99.90;;;;;;4918627;29;20024;-79
2022/05/16 15:38:59;;;;;;;3.72;2.58;;;23.20;99.90;;;;;;4935698;29;20023;-79
2022/05/16 15:41:25;;;;;;;4.85;1.98;;;22.90;99.90;;;;;;4936296;29;20476;-80
2022/05/16 15:43:50;;;;;;;4.35;2.00;;;22.60;99.90;;;;;;4936563;29;20043;-80
2022/05/16 15:46:16;;;;;;;3.85;1.40;;;22.60;99.90;;;;;;4936247;29;20032;-80
2022/05/16 15:48:42;;;;;;;3.38;1.70;;;22.80;99.90;;;;;;4918914;29;20043;-80
2022/05/16 15:51:10;;;;;;;4.97;2.05;;;23.10;99.90;;;;;;4936476;29;20385;-82
2022/05/16 15:53:36;;;;;;;4.35;2.03;;;23.00;99.90;;;;;;4919020;29;20120;-81
2022/05/16 15:56:01;;;;;;;2.63;1.48;;;23.20;99.90;;;;;;4936083;29;20120;-80
2022/05/16 15:58:27;;;;;;;2.38;1.52;;;22.90;99.90;;;;;;4936113;29;20032;-80
2022/05/16 16:00:52;;;;;;;3.83;1.50;;;22.80;99.90;;;;;;4936477;29;20059;-81
2022/05/16 16:08:57;;;;;;;4.88;1.90;;;23.10;99.90;;;;;;4935849;29;20040;-81
2022/05/16 16:11:24;;;;;;;4.25;1.85;;;23.00;99.90;;;;;;4919632;29;20023;-81
2022/05/16 16:13:50;;;;;;;4.78;1.77;;;23.20;99.90;;;;;;4919166;29;20477;-80
2022/05/16 16:16:16;;;;;;;3.65;1.38;;;23.20;99.90;;;;;;4936332;29;20441;-79
2022/05/16 16:18:43;;;;;;;3.08;1.30;;;23.30;99.90;;;;;;4936107;29;20060;-80
2022/05/16 16:21:09;;;;;;;3.13;1.40;;;23.40;99.90;;;;;;4919109;29;20028;-80
2022/05/16 16:23:35;;;;;;;2.22;1.23;;;23.10;99.60;;;;;;4936592;29;20469;-80
2022/05/16 16:26:01;;;;;;;3.00;1.63;;;23.30;99.90;;;;;;4935049;29;20024;-80
2022/05/16 16:28:26;;;;;;;1.77;1.20;;;23.10;99.80;;;;;;4935863;29;20036;-79
2022/05/16 16:30:55;;;;;;;2.10;1.25;;;23.10;99.70;;;;;;4935979;29;20111;-80
2022/05/16 16:33:22;;;;;;;3.63;1.27;;;22.80;99.80;;;;;;4919793;29;20031;-80
2022/05/16 16:35:48;;;;;;;6.03;1.70;;;22.90;99.90;;;;;;4935903;29;20044;-79
2022/05/16 16:38:16;;;;;;;2.42;1.23;;;23.00;99.90;;;;;;4938592;29;20464;-79
2022/05/16 16:40:44;;;;;;;3.15;1.52;;;22.90;99.90;;;;;;4939459;29;20015;-80
2022/05/16 16:43:33;;;;;;;1.48;0.98;;;22.90;99.90;;;;;;4921511;29;20040;-78
2022/05/16 16:46:10;;;;;;;3.75;1.35;;;22.80;99.90;;;;;;4939274;29;20035;-79
2022/05/16 16:48:36;;;;;;;4.32;2.20;;;22.90;99.80;;;;;;4921984;29;20142;-80
2022/05/16 16:57:27;;;;;;;3.92;1.92;;;22.80;99.80;;;;;;4922617;29;20116;-81
2022/05/16 16:59:26;;;;;;;2.45;1.20;;;23.20;99.40;;;;;;4942759;29;20042;-80
2022/05/16 17:01:53;;;;;;;3.53;1.00;;;23.80;99.00;;;;;;4921168;29;20404;-80
2022/05/16 17:04:19;;;;;;;2.60;1.40;;;24.20;98.60;;;;;;4938375;29;20027;-80
2022/05/16 17:06:45;;;;;;;2.42;1.23;;;23.90;98.40;;;;;;4925550;29;20024;-80
2022/05/16 17:09:10;;;;;;;1.40;1.00;;;23.90;98.20;;;;;;4946964;29;20087;-79
2022/05/16 17:11:36;;;;;;;2.95;1.40;;;24.00;97.90;;;;;;4944906;29;20028;-81
2022/05/16 17:14:01;;;;;;;3.20;1.17;;;24.30;97.70;;;;;;4939098;29;20031;-80
2022/05/16 17:16:27;;;;;;;2.33;0.90;;;24.30;97.50;;;;;;4920937;29;20024;-80
2022/05/16 17:18:52;;;;;;;2.92;0.95;;;23.90;97.60;;;;;;4921494;29;20027;-81
2022/05/16 17:21:18;;;;;;;3.63;1.90;;;24.10;97.90;;;;;;4921845;29;20047;-81
2022/05/16 17:23:48;;;;;;;2.17;1.10;;;24.20;97.70;;;;;;4921289;29;20114;-80
2022/05/16 17:26:14;;;;;;;2.88;2.08;;;24.30;97.30;;;;;;4922072;29;20028;-82
2022/05/16 17:28:40;;;;;;;1.85;1.10;;;24.20;97.10;;;;;;4921819;29;20071;-80
2022/05/16 17:31:06;;;;;;;1.88;0.93;;;24.40;97.20;;;;;;4921765;29;20036;-80
2022/05/16 17:33:33;;;;;;;1.30;1.00;;;24.40;96.50;;;;;;4938535;29;20119;-80
2022/05/16 17:35:59;;;;;;;2.03;0.93;;;24.00;96.20;;;;;;4937902;29;20055;-80
2022/05/16 17:38:25;;;;;;;1.13;0.90;;;23.90;96.80;;;;;;4937884;29;20396;-81
2022/05/16 17:40:52;;;;;;;1.98;1.35;;;24.00;96.80;;;;;;4938245;29;20031;-79
2022/05/16 17:43:19;;;;;;;2.63;1.23;;;23.90;96.30;;;;;;4937923;29;20056;-80
2022/05/16 17:45:45;;;;;;;4.47;1.42;;;23.60;96.70;;;;;;4920582;29;20079;-80
2022/05/16 17:48:11;;;;;;;3.88;1.17;;;23.40;96.80;;;;;;4920852;29;20028;-80
2022/05/16 17:50:42;;;;;;;2.78;1.27;;;23.20;97.50;;;;;;4920328;29;20028;-79
2022/05/16 17:53:07;;;;;;;2.25;1.17;;;23.00;97.70;;;;;;4921040;29;20031;-81
2022/05/16 17:55:34;;;;;;;3.22;1.10;;;22.60;97.80;;;;;;4921206;29;20377;-80
2022/05/16 17:57:59;;;;;;;2.38;1.20;;;22.40;98.30;;;;;;4943284;29;20020;-81
2022/05/16 18:00:25;;;;;;;2.17;1.02;;;22.40;98.50;;;;;;4945994;29;20047;-79
2022/05/16 18:02:53;;;;;;;3.35;0.95;;;22.20;98.20;;;;;;4940895;29;20038;-79
2022/05/16 18:05:19;;;;;;;3.65;1.10;;;21.90;98.30;;;;;;4920354;29;20032;-80
2022/05/16 18:07:47;;;;;;;2.25;0.95;;;21.70;98.80;;;;;;4921059;29;20032;-79
2022/05/16 18:10:12;;;;;;;2.60;1.17;;;21.60;98.80;;;;;;4920046;29;20055;-79
2022/05/16 18:12:52;;;;;;;1.63;0.80;;;21.30;99.30;;;;;;4938140;29;20034;-81
2022/05/16 18:15:28;;;;;;;5.22;1.13;;;21.20;99.60;;;;;;4920552;29;20024;-81
2022/05/16 18:17:56;;;;;;;2.65;1.48;;;21.10;99.90;;;;;;4938106;29;20023;-80
2022/05/16 18:20:23;;;;;;;2.67;1.10;;;21.00;99.90;;;;;;4936964;29;20031;-79
2022/05/16 18:22:52;;;;;;;4.78;1.85;;;20.80;99.90;;;;;;4937071;29;20016;-80
2022/05/16 18:25:20;;;;;;;3.42;1.50;;;20.70;99.90;;;;;;4919438;29;20118;-79
2022/05/16 18:27:46;;;;;;;2.20;1.20;;;20.70;99.90;;;;;;4919680;29;20168;-81
2022/05/16 18:30:15;;;;;;;2.28;1.20;;;20.60;99.90;;;;;;4920540;29;20119;-80
2022/05/16 18:32:43;;;;;;;2.08;1.33;;;20.50;99.90;;;;;;4937348;29;20102;-80
2022/05/16 18:35:10;;;;;;;2.35;1.60;;;20.40;99.90;;;;;;4937262;29;20034;-81
2022/05/16 18:37:37;;;;;;;3.05;1.52;;;20.30;99.90;;;;;;4921026;29;20028;-80
2022/05/16 18:40:03;;;;;;;6.78;1.50;;;20.30;99.90;;;;;;4937609;29;20388;-80
2022/05/16 18:50:46;;;;;;;5.50;1.60;;;20.20;99.90;;;;;;4937003;29;20039;-81
2022/05/16 18:53:23;;;;;;;4.43;1.50;;;20.20;99.90;;;;;;4936997;29;20027;-80
2022/05/16 18:55:50;;;;;;;4.68;1.50;;;20.10;99.90;;;;;;4937365;29;20098;-81
2022/05/16 18:58:16;;;;;;;3.13;1.15;;;20.00;99.90;;;;;;4937075;29;20024;-81
2022/05/16 19:00:47;;;;;;;3.50;1.75;;;20.00;99.90;;;;;;4935746;29;20067;-79
2022/05/16 19:03:15;;;;;;;2.45;1.30;;;20.00;99.90;;;;;;4919387;29;20028;-81
2022/05/16 19:05:46;;;;;;;3.80;1.42;;;19.80;99.90;;;;;;4920600;29;20043;-80
2022/05/16 19:08:13;;;;;;;1.63;1.15;;;19.80;99.90;;;;;;4938562;29;20539;-81
2022/05/16 19:10:43;;;;;;;5.40;1.48;;;19.70;99.90;;;;;;4919429;29;20038;-80
2022/05/16 19:13:09;;;;;;;3.85;1.70;;;19.70;99.90;;;;;;4936479;29;20034;-80
2022/05/16 19:15:35;;;;;;;5.05;2.35;;;19.70;99.90;;;;;;4936618;29;20541;-80
2022/05/16 19:18:04;;;;;;;3.72;1.50;;;19.60;99.90;;;;;;4936071;29;20055;-80
2022/05/16 19:20:33;;;;;;;3.78;1.83;;;19.50;99.90;;;;;;4935275;29;20369;-80
2022/05/16 19:22:59;;;;;;;5.85;1.77;;;19.40;99.90;;;;;;4936458;29;20492;-79
2022/05/16 19:25:25;;;;;;;1.85;1.20;;;19.30;99.90;;;;;;4935929;29;20032;-80
2022/05/16 19:33:25;;;;;;;3.97;1.30;;;19.20;99.90;;;;;;4936482;29;20034;-79
2022/05/16 19:35:53;;;;;;;3.85;1.73;;;19.20;99.90;;;;;;4918723;29;20074;-79
2022/05/16 19:38:20;;;;;;;2.85;1.65;;;19.10;99.90;;;;;;4919148;29;20062;-82
2022/05/16 19:40:50;;;;;;;3.90;1.63;;;19.10;99.90;;;;;;4919464;29;20116;-80
2022/05/16 19:43:17;;;;;;;1.98;1.58;;;19.00;99.90;;;;;;4918788;29;20066;-80
2022/05/16 19:45:44;;;;;;;2.97;1.50;;;19.00;99.90;;;;;;4936815;29;20030;-78
2022/05/16 19:48:13;;;;;;;3.78;1.63;;;19.00;99.90;;;;;;4936097;29;20400;-80
2022/05/16 19:50:40;;;;;;;4.90;2.08;;;19.00;99.90;;;;;;4935789;29;20039;-81
2022/05/16 19:53:07;;;;;;;3.15;1.92;;;18.90;99.90;;;;;;4919788;29;20027;-80
2022/05/16 19:55:33;;;;;;;2.70;1.38;;;18.90;99.90;;;;;;4935928;29;20476;-80
2022/05/16 19:57:58;;;;;;;5.25;1.67;;;18.90;99.90;;;;;;4936728;29;20032;-80
2022/05/16 22:06:31;;;;;;;4.95;2.17;;;17.60;99.90;;;;;;5187129;23;20093;-80
2022/05/16 22:08:57;;;;;;;3.92;2.10;;;17.50;99.90;;;;;;4948014;28;20067;-77
2022/05/16 22:11:22;;;;;;;5.95;2.45;;;17.40;99.90;;;;;;4946542;28;20023;-79